Tropical Cyclones
[Index]
Main Index Home Page Stock Weather Photos Extreme Storms Discussion Storm News and Storm Chasing Reports Tropical Cyclones / Hurricanes / Typhoons Weather Data and Links Wild Fires / Bushfires Weather Observation Techniques Weather Picture Catalogue Tornado Pictures and Reports Stock Video Footage and DVDs for sale
Season 1992-1993 Tropical Cyclone LIN Track Map
Season 1992-1993 Summaries: [BoM-AU] [JTWC-AU] [JTWC-SIO] [JTWC-SPAC] [JTWC-SH]
<<- Previous TC | JTWC 1992-1993 Season | Next TC ->>

click for intensity scale information  Lat/long Grid: Show Hide

 Date Labels: Show Hide

Joint Typhoon Warning Centre Cyclone Data

Name: LIN

29 Jan 1993 00:00 UTC to 04 Feb 1993 00:00 UTC

    date/time    lat    long     hPa   cat  kts
1993-01-29 00   11.0   178.1                  15          
1993-01-29 06   11.0   179.0                  15          
1993-01-29 12   11.1   180.0                  20          
1993-01-29 18   11.2   179.0W                 20          
1993-01-30 00   11.3   178.0W                 20          
1993-01-30 06   11.4   176.9W                 25          
1993-01-30 12   11.7   175.9W                 25          
1993-01-30 18   12.1   174.8W                 30          
1993-01-31 00   12.6   173.8W                 35          
1993-01-31 06   13.2   173.0W           1     40          
1993-01-31 12   13.8   172.0W           1     50          
1993-01-31 18   14.6   171.1W           2     60          
1993-02-01 00   15.5   170.5W           2     65          
1993-02-01 06   16.5   170.0W           2     70          
1993-02-01 12   17.4   169.5W           3     75          
1993-02-01 18   18.3   168.9W           3     85          
1993-02-02 00   19.2   168.2W           3     90          
1993-02-02 06   20.0   167.4W           3     90          
1993-02-02 12   20.6   166.7W           3     85          
1993-02-02 18   21.1   165.9W           2     70          
1993-02-03 00   21.5   165.3W           2     55          
1993-02-03 06   22.0   165.0W           1     45          
1993-02-03 12   22.5   165.0W           1     40          
1993-02-03 18   22.9   165.1W                 35          
1993-02-04 00   23.2   165.3W                 30          
Winds are 1-min average.

Tropical cyclone tracks developed by Michael Bath using data from the Joint Typhoon Warning Centre Best Tracks and Google Maps.


[Australian Severe Weather index] [Copyright Notice] [Email Contacts] [Search This Site] [Privacy Policy]
Document: tropical_cyclone_lin.htm Updated: 18 September 2016